GQPA/ATR METAR and TAF weather

Enter ICAO airport designator
Station Type Date Time Source
GQPA METAR 2020/09/22 12:00 UTC NOAA

GQPA 221200Z 22006KT 8000 NSC 35/17 Q1016


Station Type Date Time Source
GQPA Decoded METAR 2020/09/22 12:00 UTC NOAA

Atar, Mauritania (GQPA) 20-31N 013-04W 224M
Sep 22, 2020 - 08:00 AM EDT / 2020.09.22 1200 UTC
Wind: from the SW (220 degrees) at 7 MPH (6 KT):0
Visibility: 4 mile(s):0
Temperature: 95 F (35 C)
Heat index: 96.1 F (35.6 C):1
Dew Point: 62 F (17 C)
Relative Humidity: 34%
Pressure (altimeter): 30.00 in. Hg (1016 hPa)
ob: GQPA 221200Z 22006KT 8000 NSC 35/17 Q1016
cycle: 12

Station Type Date Time Source
GQPA TAF UTC NOAA

Error!

Example: see airport list